Time;durP1;ratioP1;P1;durP2;ratioP2;P2;SDS_P1;SDS_P2;PMS_P1;PMS_P2;Temp;Humidity;BMP_temperature;BMP_pressure;BME280_temperature;BME280_humidity;BME280_pressure;Samples;Min_cycle;Max_cycle;Signal;HPM_P1;HPM_P2
2022/08/29 00:01:24;;;;;;;0.00;0.00;;;;;;;;;;5135700;27;20102;-86
2022/08/29 00:03:52;;;;;;;0.00;0.00;;;;;;;;;;5109906;27;20494;-85
2022/08/29 00:06:18;;;;;;;0.20;0.20;;;;;;;;;;5116073;27;20058;-85
2022/08/29 00:08:43;;;;;;;0.20;0.10;;;;;;;;;;5132371;27;20088;-85
2022/08/29 00:11:09;;;;;;;0.32;0.32;;;;;;;;;;5117189;27;20110;-86
2022/08/29 00:13:35;;;;;;;0.08;0.08;;;;;;;;;;5116348;27;20026;-86
2022/08/29 00:16:00;;;;;;;0.10;0.00;;;;;;;;;;5135237;27;20023;-87
2022/08/29 00:18:26;;;;;;;0.28;0.20;;;;;;;;;;5114260;27;20041;-84
2022/08/29 00:20:52;;;;;;;0.10;0.10;;;;;;;;;;5132699;27;20026;-85
2022/08/29 00:23:17;;;;;;;0.20;0.20;;;;;;;;;;5116906;27;20023;-87
2022/08/29 00:25:43;;;;;;;0.60;0.20;;;;;;;;;;5135032;27;20023;-86
2022/08/29 00:28:09;;;;;;;0.00;0.00;;;;;;;;;;5114721;27;20030;-84
2022/08/29 00:30:36;;;;;;;0.10;0.10;;;;;;;;;;5116843;27;20386;-87
2022/08/29 00:33:01;;;;;;;0.00;0.00;;;;;;;;;;5115359;27;20072;-85
2022/08/29 00:35:34;;;;;;;0.60;0.60;;;;;;;;;;5116618;27;20023;-87
2022/08/29 00:38:00;;;;;;;0.00;0.00;;;;;;;;;;5134189;27;20031;-88
2022/08/29 00:40:48;;;;;;;0.30;0.30;;;;;;;;;;5134892;27;20027;-87
2022/08/29 00:43:13;;;;;;;0.30;0.30;;;;;;;;;;5114755;27;20455;-86
2022/08/29 00:45:48;;;;;;;0.00;0.00;;;;;;;;;;5115463;27;20023;-85
2022/08/29 00:48:15;;;;;;;0.20;0.20;;;;;;;;;;5115743;27;20027;-85
2022/08/29 00:50:49;;;;;;;0.03;0.00;;;;;;;;;;5134429;27;20049;-87
2022/08/29 00:53:18;;;;;;;0.00;0.00;;;;;;;;;;5115271;27;20034;-87
2022/08/29 00:55:45;;;;;;;0.00;0.00;;;;;;;;;;5116101;27;20046;-88
2022/08/29 00:58:17;;;;;;;0.00;0.00;;;;;;;;;;5116336;27;20015;-85
2022/08/29 01:00:43;;;;;;;5.75;3.15;;;;;;;;;;5114656;27;20019;-86
2022/08/29 01:03:09;;;;;;;0.50;0.50;;;;;;;;;;5115646;27;20034;-85
2022/08/29 01:05:36;;;;;;;0.20;0.20;;;;;;;;;;5116128;27;20716;-85
2022/08/29 01:08:02;;;;;;;6.90;0.98;;;;;;;;;;5115919;27;20027;-84
2022/08/29 01:13:12;;;;;;;0.00;0.00;;;;;;;;;;5133700;27;20034;-85
2022/08/29 01:15:40;;;;;;;0.05;0.05;;;;;;;;;;5134202;27;20027;-86
2022/08/29 01:18:08;;;;;;;0.00;0.00;;;;;;;;;;5133050;27;20077;-84
2022/08/29 01:20:44;;;;;;;0.17;0.08;;;;;;;;;;5114567;27;20093;-88
2022/08/29 01:23:19;;;;;;;0.00;0.00;;;;;;;;;;5133847;27;20031;-86
2022/08/29 01:25:47;;;;;;;0.57;0.38;;;;;;;;;;5134335;27;20471;-85
2022/08/29 01:28:19;;;;;;;2.28;0.85;;;;;;;;;;5115864;27;20022;-85
2022/08/29 01:30:59;;;;;;;0.13;0.10;;;;;;;;;;5133517;27;20023;-86
2022/08/29 01:33:26;;;;;;;0.03;0.03;;;;;;;;;;5133205;27;20049;-86
2022/08/29 01:35:51;;;;;;;0.00;0.00;;;;;;;;;;5114541;27;20027;-85
2022/08/29 01:38:26;;;;;;;0.55;0.38;;;;;;;;;;5132706;27;20026;-84
2022/08/29 01:40:57;;;;;;;0.10;0.10;;;;;;;;;;5131892;27;20519;-86
2022/08/29 01:43:24;;;;;;;0.08;0.08;;;;;;;;;;5114382;27;20044;-88
2022/08/29 01:45:50;;;;;;;0.10;0.10;;;;;;;;;;5134078;27;20807;-86
2022/08/29 01:48:17;;;;;;;0.00;0.00;;;;;;;;;;5131246;27;20047;-86
2022/08/29 01:50:42;;;;;;;0.00;0.00;;;;;;;;;;5132598;27;20080;-86
2022/08/29 01:53:08;;;;;;;0.20;0.20;;;;;;;;;;5114744;27;20027;-88
2022/08/29 01:55:33;;;;;;;0.10;0.10;;;;;;;;;;5129537;27;20535;-86
2022/08/29 01:57:59;;;;;;;0.00;0.00;;;;;;;;;;5114098;27;20015;-88
2022/08/29 02:00:24;;;;;;;0.20;0.20;;;;;;;;;;5131362;27;20027;-89
2022/08/29 02:02:51;;;;;;;0.30;0.30;;;;;;;;;;5133684;27;20023;-86
2022/08/29 02:05:16;;;;;;;5.20;2.47;;;;;;;;;;5127609;27;20034;-86
2022/08/29 02:07:42;;;;;;;0.00;0.00;;;;;;;;;;5133587;27;20023;-88
2022/08/29 02:10:11;;;;;;;0.00;0.00;;;;;;;;;;5115453;27;20347;-85
2022/08/29 02:12:37;;;;;;;0.00;0.00;;;;;;;;;;5109147;27;20160;-87
2022/08/29 02:15:03;;;;;;;6.05;5.57;;;;;;;;;;5133605;27;20109;-87
2022/08/29 02:17:28;;;;;;;0.05;0.05;;;;;;;;;;5126823;27;20042;-86
2022/08/29 02:19:54;;;;;;;0.00;0.00;;;;;;;;;;5113534;27;20023;-87
2022/08/29 02:22:20;;;;;;;0.30;0.22;;;;;;;;;;5113831;27;20115;-87
2022/08/29 02:24:45;;;;;;;0.08;0.08;;;;;;;;;;5133619;27;20025;-86
2022/08/29 02:27:11;;;;;;;0.15;0.10;;;;;;;;;;5132619;27;20037;-87
2022/08/29 02:29:37;;;;;;;0.05;0.05;;;;;;;;;;5133255;27;20038;-87
2022/08/29 02:32:08;;;;;;;0.20;0.20;;;;;;;;;;5133163;27;20030;-87
2022/08/29 02:34:34;;;;;;;0.57;0.57;;;;;;;;;;5133505;27;20031;-88
2022/08/29 02:36:59;;;;;;;0.20;0.20;;;;;;;;;;5115218;27;20031;-87
2022/08/29 02:39:29;;;;;;;0.47;0.40;;;;;;;;;;5109720;28;20034;-87
2022/08/29 02:41:57;;;;;;;0.43;0.43;;;;;;;;;;5113532;28;20375;-87
2022/08/29 02:44:22;;;;;;;0.00;0.00;;;;;;;;;;5131497;27;20030;-87
2022/08/29 02:46:48;;;;;;;0.20;0.10;;;;;;;;;;5114353;28;20038;-87
2022/08/29 02:49:14;;;;;;;0.35;0.35;;;;;;;;;;5114490;28;20036;-86
2022/08/29 02:51:40;;;;;;;0.25;0.25;;;;;;;;;;5114884;28;20463;-88
2022/08/29 02:54:05;;;;;;;0.32;0.28;;;;;;;;;;5131146;28;20079;-88
2022/08/29 02:56:31;;;;;;;0.00;0.00;;;;;;;;;;5133498;28;20113;-87
2022/08/29 02:58:56;;;;;;;0.15;0.15;;;;;;;;;;5113224;28;20054;-88
2022/08/29 03:01:23;;;;;;;0.63;0.63;;;;;;;;;;5131086;28;20103;-86
2022/08/29 03:03:52;;;;;;;0.08;0.08;;;;;;;;;;5132196;28;20850;-85
2022/08/29 03:06:18;;;;;;;1.35;1.25;;;;;;;;;;5133095;28;20472;-86
2022/08/29 03:08:44;;;;;;;0.45;0.45;;;;;;;;;;5118291;27;20363;-86
2022/08/29 03:11:10;;;;;;;0.85;0.85;;;;;;;;;;5136606;27;20034;-86
2022/08/29 03:13:36;;;;;;;0.00;0.00;;;;;;;;;;5137368;27;20022;-86
2022/08/29 03:16:02;;;;;;;0.10;0.10;;;;;;;;;;5136529;27;21665;-86
2022/08/29 03:18:28;;;;;;;0.28;0.28;;;;;;;;;;5137416;27;20031;-85
2022/08/29 03:20:54;;;;;;;0.00;0.00;;;;;;;;;;5135461;27;20031;-85
2022/08/29 03:23:22;;;;;;;3.85;1.15;;;;;;;;;;5116486;27;20380;-86
2022/08/29 03:25:47;;;;;;;0.10;0.10;;;;;;;;;;5135718;27;20457;-88
2022/08/29 03:28:13;;;;;;;0.00;0.00;;;;;;;;;;5136624;27;20023;-87
2022/08/29 03:30:38;;;;;;;0.28;0.28;;;;;;;;;;5116262;27;20058;-86
2022/08/29 03:33:04;;;;;;;0.00;0.00;;;;;;;;;;5135460;27;20027;-86
2022/08/29 03:35:32;;;;;;;0.15;0.15;;;;;;;;;;5136315;27;20022;-86
2022/08/29 03:37:58;;;;;;;0.00;0.00;;;;;;;;;;5115571;27;20433;-87
2022/08/29 03:40:24;;;;;;;0.43;0.22;;;;;;;;;;5133817;27;20114;-85
2022/08/29 03:42:50;;;;;;;1.35;1.25;;;;;;;;;;5136260;27;20035;-86
2022/08/29 03:45:18;;;;;;;0.20;0.20;;;;;;;;;;5115944;27;20467;-86
2022/08/29 03:47:44;;;;;;;0.05;0.05;;;;;;;;;;5134381;27;20031;-85
2022/08/29 03:50:11;;;;;;;0.10;0.10;;;;;;;;;;5115282;27;20023;-86
2022/08/29 03:52:38;;;;;;;0.00;0.00;;;;;;;;;;5116791;27;20033;-86
2022/08/29 03:55:05;;;;;;;0.22;0.22;;;;;;;;;;5135414;27;20047;-85
2022/08/29 03:57:32;;;;;;;0.00;0.00;;;;;;;;;;5117391;27;20027;-86
2022/08/29 03:59:58;;;;;;;0.43;0.43;;;;;;;;;;5136074;27;20019;-85
2022/08/29 04:02:24;;;;;;;0.00;0.00;;;;;;;;;;5135326;27;20029;-86
2022/08/29 04:05:09;;;;;;;0.10;0.10;;;;;;;;;;5117156;27;20023;-85
2022/08/29 04:08:04;;;;;;;0.00;0.00;;;;;;;;;;5117260;27;20072;-85
2022/08/29 04:10:32;;;;;;;4.50;2.90;;;;;;;;;;5121618;27;20490;-86
2022/08/29 04:12:58;;;;;;;0.10;0.10;;;;;;;;;;5115534;27;20450;-85
2022/08/29 04:15:26;;;;;;;0.10;0.10;;;;;;;;;;5113018;27;20033;-86
2022/08/29 04:17:54;;;;;;;0.00;0.00;;;;;;;;;;5116794;27;20027;-88
2022/08/29 04:20:21;;;;;;;0.10;0.10;;;;;;;;;;5134468;27;20023;-85
2022/08/29 04:22:48;;;;;;;0.45;0.20;;;;;;;;;;5135453;27;20367;-86
2022/08/29 04:25:14;;;;;;;0.35;0.35;;;;;;;;;;5135922;27;20356;-85
2022/08/29 04:27:40;;;;;;;0.10;0.10;;;;;;;;;;5134372;27;20023;-85
2022/08/29 04:30:10;;;;;;;0.00;0.00;;;;;;;;;;5134806;27;20023;-87
2022/08/29 04:32:36;;;;;;;;;;;;;;;;;;5116877;27;20348;-87
2022/08/29 04:35:01;;;;;;;0.00;0.00;;;;;;;;;;5134691;27;19990;-87
2022/08/29 04:37:27;;;;;;;0.00;0.00;;;;;;;;;;5134731;27;20045;-85
2022/08/29 04:39:53;;;;;;;0.00;0.00;;;;;;;;;;5116729;27;20110;-85
2022/08/29 04:42:19;;;;;;;0.10;0.05;;;;;;;;;;5134489;27;20356;-85
2022/08/29 04:44:45;;;;;;;1.00;0.70;;;;;;;;;;5109589;27;20027;-86
2022/08/29 04:47:11;;;;;;;0.47;0.20;;;;;;;;;;5113588;27;20383;-85
2022/08/29 04:49:36;;;;;;;0.10;0.10;;;;;;;;;;5129212;27;20034;-86
2022/08/29 04:52:02;;;;;;;0.03;0.00;;;;;;;;;;5129657;27;20027;-85
2022/08/29 04:54:27;;;;;;;0.10;0.10;;;;;;;;;;5147734;27;20126;-86
2022/08/29 04:56:53;;;;;;;0.00;0.00;;;;;;;;;;5111826;27;20029;-86
2022/08/29 04:59:18;;;;;;;0.13;0.13;;;;;;;;;;5134140;27;20060;-84
2022/08/29 05:01:44;;;;;;;0.10;0.10;;;;;;;;;;5130927;27;20031;-86
2022/08/29 05:04:10;;;;;;;0.10;0.10;;;;;;;;;;5108962;27;20155;-85
2022/08/29 05:06:35;;;;;;;0.47;0.47;;;;;;;;;;5131279;27;20471;-85
2022/08/29 05:09:01;;;;;;;0.20;0.20;;;;;;;;;;5128004;27;20547;-85
2022/08/29 05:11:29;;;;;;;0.00;0.00;;;;;;;;;;5110685;27;20024;-84
2022/08/29 05:13:55;;;;;;;2.65;0.17;;;;;;;;;;5124247;27;20030;-85
2022/08/29 05:16:20;;;;;;;0.43;0.43;;;;;;;;;;5130707;27;20023;-84
2022/08/29 05:18:46;;;;;;;0.57;0.57;;;;;;;;;;5112536;27;20152;-84
2022/08/29 05:21:14;;;;;;;0.03;0.03;;;;;;;;;;5114401;27;20050;-84
2022/08/29 05:23:39;;;;;;;0.20;0.20;;;;;;;;;;5131909;27;20101;-84
2022/08/29 05:26:05;;;;;;;0.28;0.28;;;;;;;;;;5133098;27;20058;-85
2022/08/29 05:28:33;;;;;;;0.00;0.00;;;;;;;;;;5125707;27;20040;-84
2022/08/29 05:30:59;;;;;;;0.10;0.10;;;;;;;;;;5129488;27;20455;-84
2022/08/29 05:33:26;;;;;;;0.10;0.10;;;;;;;;;;5132375;27;20119;-84
2022/08/29 05:35:52;;;;;;;0.15;0.15;;;;;;;;;;5109728;27;20391;-84
2022/08/29 05:38:18;;;;;;;0.77;0.40;;;;;;;;;;5127264;27;20039;-85
2022/08/29 05:40:43;;;;;;;0.65;0.65;;;;;;;;;;5129778;27;20027;-85
2022/08/29 05:43:10;;;;;;;0.55;0.50;;;;;;;;;;5131310;27;20032;-85
2022/08/29 05:45:37;;;;;;;0.20;0.20;;;;;;;;;;5129429;27;20019;-84
2022/08/29 05:48:04;;;;;;;1.95;0.90;;;;;;;;;;5109452;27;20034;-84
2022/08/29 05:50:30;;;;;;;0.03;0.03;;;;;;;;;;5112843;27;20069;-83
2022/08/29 05:52:55;;;;;;;0.57;0.57;;;;;;;;;;5129912;27;20051;-84
2022/08/29 05:55:21;;;;;;;0.57;0.57;;;;;;;;;;5104155;28;20047;-84
2022/08/29 05:57:48;;;;;;;0.17;0.17;;;;;;;;;;5109040;28;20016;-83
2022/08/29 06:00:15;;;;;;;2.30;2.03;;;;;;;;;;5111452;28;20093;-84
2022/08/29 06:02:40;;;;;;;0.03;0.03;;;;;;;;;;5108646;28;20444;-85
2022/08/29 06:05:06;;;;;;;0.32;0.25;;;;;;;;;;5111198;28;20102;-84
2022/08/29 06:07:32;;;;;;;0.30;0.30;;;;;;;;;;5109551;28;20475;-85
2022/08/29 06:09:57;;;;;;;1.75;1.48;;;;;;;;;;5107969;28;20027;-84
2022/08/29 06:12:23;;;;;;;0.10;0.10;;;;;;;;;;5109938;28;20043;-85
2022/08/29 06:14:48;;;;;;;0.90;0.90;;;;;;;;;;5112148;28;20023;-85
2022/08/29 06:17:14;;;;;;;1.83;1.73;;;;;;;;;;5110176;28;20379;-85
2022/08/29 06:19:39;;;;;;;2.08;2.05;;;;;;;;;;5109781;28;20019;-85
2022/08/29 06:22:07;;;;;;;0.65;0.65;;;;;;;;;;5110113;28;20383;-85
2022/08/29 06:24:33;;;;;;;1.92;1.83;;;;;;;;;;5107380;28;20015;-85
2022/08/29 06:27:00;;;;;;;0.30;0.30;;;;;;;;;;5111309;28;20034;-85
2022/08/29 06:29:26;;;;;;;0.10;0.10;;;;;;;;;;5105573;28;20034;-85
2022/08/29 06:31:54;;;;;;;0.50;0.30;;;;;;;;;;5113136;28;20103;-84
2022/08/29 06:34:19;;;;;;;3.38;2.38;;;;;;;;;;5109931;28;20024;-85
2022/08/29 06:36:45;;;;;;;6.28;2.50;;;;;;;;;;5109929;28;20045;-84
2022/08/29 06:39:10;;;;;;;0.30;0.30;;;;;;;;;;5109843;28;20027;-84
2022/08/29 06:41:38;;;;;;;0.70;0.70;;;;;;;;;;5109645;28;21019;-85
2022/08/29 06:44:04;;;;;;;0.20;0.20;;;;;;;;;;5108870;28;20507;-84
2022/08/29 06:46:39;;;;;;;2.67;1.15;;;;;;;;;;5110369;28;20039;-84
2022/08/29 06:49:08;;;;;;;0.10;0.10;;;;;;;;;;5109324;28;20028;-85
2022/08/29 06:51:38;;;;;;;0.85;0.68;;;;;;;;;;5107636;28;20028;-84
2022/08/29 06:54:06;;;;;;;1.02;1.02;;;;;;;;;;5109041;28;20518;-85
2022/08/29 06:56:31;;;;;;;0.10;0.10;;;;;;;;;;5131448;28;20027;-84
2022/08/29 06:58:57;;;;;;;0.43;0.43;;;;;;;;;;5131027;28;20038;-85
2022/08/29 07:01:23;;;;;;;1.15;1.10;;;;;;;;;;5128202;28;20042;-83
2022/08/29 07:03:51;;;;;;;0.47;0.47;;;;;;;;;;5130480;28;20030;-84
2022/08/29 07:06:17;;;;;;;1.00;1.00;;;;;;;;;;5131999;28;20083;-84
2022/08/29 07:08:43;;;;;;;1.08;1.02;;;;;;;;;;5112763;28;20027;-83
2022/08/29 07:11:09;;;;;;;1.77;1.17;;;;;;;;;;5111786;28;20030;-83
2022/08/29 07:13:35;;;;;;;0.50;0.50;;;;;;;;;;5129933;28;20042;-89
2022/08/29 07:16:00;;;;;;;0.63;0.55;;;;;;;;;;5111207;28;20031;-83
2022/08/29 07:18:26;;;;;;;0.45;0.45;;;;;;;;;;5112644;28;20042;-82
2022/08/29 07:20:53;;;;;;;0.38;0.20;;;;;;;;;;5126183;28;20046;-83
2022/08/29 07:23:19;;;;;;;0.55;0.55;;;;;;;;;;5129161;28;20038;-83
2022/08/29 07:25:45;;;;;;;0.00;0.00;;;;;;;;;;5129608;28;20038;-82
2022/08/29 07:28:11;;;;;;;1.25;0.95;;;;;;;;;;5108517;28;20031;-84
2022/08/29 07:30:36;;;;;;;0.08;0.08;;;;;;;;;;5130683;28;20053;-82
2022/08/29 07:33:02;;;;;;;0.22;0.22;;;;;;;;;;5128389;28;20110;-82
2022/08/29 07:35:28;;;;;;;1.52;1.20;;;;;;;;;;5125395;28;20027;-83
2022/08/29 07:37:59;;;;;;;0.75;0.75;;;;;;;;;;5128931;28;20080;-83
2022/08/29 07:40:25;;;;;;;0.35;0.35;;;;;;;;;;5125028;27;20378;-84
2022/08/29 07:42:51;;;;;;;0.17;0.17;;;;;;;;;;5128647;28;20083;-84
2022/08/29 07:45:17;;;;;;;0.28;0.28;;;;;;;;;;5130080;28;20019;-84
2022/08/29 07:47:42;;;;;;;0.25;0.25;;;;;;;;;;5126608;28;20027;-84
2022/08/29 07:50:10;;;;;;;0.47;0.47;;;;;;;;;;5113157;28;20031;-84
2022/08/29 07:52:36;;;;;;;0.63;0.55;;;;;;;;;;5124279;27;20034;-84
2022/08/29 07:55:03;;;;;;;0.30;0.20;;;;;;;;;;5130763;27;20040;-84
2022/08/29 07:57:29;;;;;;;0.93;0.93;;;;;;;;;;5130937;27;20440;-85
2022/08/29 07:59:54;;;;;;;0.32;0.20;;;;;;;;;;5132672;27;20031;-83
2022/08/29 08:02:20;;;;;;;0.47;0.47;;;;;;;;;;5129723;27;20039;-84
2022/08/29 08:04:45;;;;;;;0.30;0.30;;;;;;;;;;5131409;27;20058;-84
2022/08/29 08:07:12;;;;;;;0.30;0.30;;;;;;;;;;5128599;27;20035;-84
2022/08/29 08:09:38;;;;;;;0.20;0.20;;;;;;;;;;5133887;27;20031;-85
2022/08/29 08:12:04;;;;;;;0.68;0.68;;;;;;;;;;5127760;27;20034;-84
2022/08/29 08:14:31;;;;;;;0.17;0.17;;;;;;;;;;5130787;27;20027;-85
2022/08/29 08:16:56;;;;;;;0.45;0.45;;;;;;;;;;5133072;27;20491;-84
2022/08/29 08:19:22;;;;;;;0.20;0.20;;;;;;;;;;5128621;27;20160;-84
2022/08/29 08:21:47;;;;;;;0.52;0.52;;;;;;;;;;5126119;27;20376;-85
2022/08/29 08:24:12;;;;;;;0.28;0.28;;;;;;;;;;5130412;27;20465;-85
2022/08/29 08:26:38;;;;;;;0.40;0.40;;;;;;;;;;5131258;27;20030;-85
2022/08/29 08:29:03;;;;;;;0.40;0.40;;;;;;;;;;5130584;27;20047;-85
2022/08/29 08:31:29;;;;;;;0.38;0.38;;;;;;;;;;5134248;27;20042;-84
2022/08/29 08:33:55;;;;;;;0.20;0.20;;;;;;;;;;5131446;27;20046;-83
2022/08/29 08:36:30;;;;;;;1.63;1.33;;;;;;;;;;5127540;27;20023;-83
2022/08/29 08:38:58;;;;;;;0.43;0.43;;;;;;;;;;5131831;27;20023;-86
2022/08/29 08:41:32;;;;;;;1.02;0.98;;;;;;;;;;5131467;27;20536;-84
2022/08/29 08:44:02;;;;;;;0.30;0.30;;;;;;;;;;5112783;27;20122;-84
2022/08/29 08:46:46;;;;;;;0.50;0.50;;;;;;;;;;5112096;27;20090;-84
2022/08/29 08:49:18;;;;;;;1.48;0.85;;;;;;;;;;5130351;27;20034;-84
2022/08/29 08:51:49;;;;;;;0.35;0.35;;;;;;;;;;5132685;27;20030;-85
2022/08/29 08:54:25;;;;;;;1.10;1.00;;;;;;;;;;5109173;27;20031;-84
2022/08/29 08:56:59;;;;;;;0.40;0.13;;;;;;;;;;5128667;27;20390;-82
2022/08/29 08:59:53;;;;;;;0.30;0.30;;;;;;;;;;5132613;27;20061;-83
2022/08/29 09:02:31;;;;;;;0.85;0.85;;;;;;;;;;5131145;27;20035;-83
2022/08/29 09:05:23;;;;;;;1.52;1.42;;;;;;;;;;5131210;27;20019;-84
2022/08/29 09:08:47;;;;;;;0.10;0.10;;;;;;;;;;5132591;27;20102;-84
2022/08/29 09:11:27;;;;;;;0.88;0.88;;;;;;;;;;5073369;27;20151;-84
2022/08/29 09:14:04;;;;;;;0.30;0.30;;;;;;;;;;5112094;27;20134;-83
2022/08/29 09:16:36;;;;;;;0.32;0.17;;;;;;;;;;5132365;27;20031;-84
2022/08/29 09:19:06;;;;;;;0.32;0.32;;;;;;;;;;5115620;27;20130;-85
2022/08/29 09:21:47;;;;;;;0.32;0.32;;;;;;;;;;5132675;27;20042;-84
2022/08/29 09:24:25;;;;;;;0.00;0.00;;;;;;;;;;5129211;27;20029;-83
2022/08/29 09:26:50;;;;;;;0.00;0.00;;;;;;;;;;5134399;27;20035;-85
2022/08/29 09:29:19;;;;;;;0.77;0.77;;;;;;;;;;5131317;27;20102;-83
2022/08/29 09:32:01;;;;;;;8.48;2.45;;;;;;;;;;5131369;27;20632;-84
2022/08/29 09:34:43;;;;;;;0.88;0.80;;;;;;;;;;5130126;27;20376;-86
2022/08/29 09:37:35;;;;;;;0.45;0.45;;;;;;;;;;5112537;27;20026;-85
2022/08/29 09:40:09;;;;;;;0.70;0.70;;;;;;;;;;5129993;27;20043;-84
2022/08/29 09:42:39;;;;;;;0.30;0.10;;;;;;;;;;5130764;27;20019;-85
2022/08/29 09:45:16;;;;;;;0.77;0.77;;;;;;;;;;5129987;27;20059;-83
2022/08/29 09:47:41;;;;;;;0.98;0.63;;;;;;;;;;5129148;27;20031;-86
2022/08/29 09:50:16;;;;;;;0.77;0.77;;;;;;;;;;5132430;27;20034;-84
2022/08/29 09:53:03;;;;;;;0.32;0.32;;;;;;;;;;5130953;27;20104;-86
2022/08/29 09:55:34;;;;;;;1.13;1.13;;;;;;;;;;5129254;27;20091;-87
2022/08/29 09:58:06;;;;;;;0.50;0.50;;;;;;;;;;5133209;27;20498;-83
2022/08/29 10:00:39;;;;;;;3.40;1.58;;;;;;;;;;5130565;27;20027;-86
2022/08/29 10:03:08;;;;;;;0.00;0.00;;;;;;;;;;5133483;27;20027;-84
2022/08/29 10:05:44;;;;;;;;;;;;;;;;;;5132758;27;20431;-82
2022/08/29 10:08:35;;;;;;;0.05;0.05;;;;;;;;;;5114934;27;20278;-84
2022/08/29 10:11:27;;;;;;;0.00;0.00;;;;;;;;;;5126936;27;20046;-85
2022/08/29 10:13:56;;;;;;;0.35;0.30;;;;;;;;;;5111868;27;20039;-84
2022/08/29 10:16:22;;;;;;;;;;;;;;;;;;5113184;28;20063;-83
2022/08/29 10:18:51;;;;;;;0.10;0.10;;;;;;;;;;5128738;27;20359;-84
2022/08/29 10:21:26;;;;;;;;;;;;;;;;;;5130964;27;20062;-86
2022/08/29 10:24:16;;;;;;;0.63;0.63;;;;;;;;;;5131275;27;20014;-85
2022/08/29 10:26:50;;;;;;;0.30;0.30;;;;;;;;;;5130786;27;20114;-85
2022/08/29 10:29:42;;;;;;;0.47;0.35;;;;;;;;;;5114298;27;20051;-84
2022/08/29 10:32:26;;;;;;;0.57;0.57;;;;;;;;;;5120708;27;20111;-86
2022/08/29 10:35:33;;;;;;;0.00;0.00;;;;;;;;;;5131783;27;20035;-84
2022/08/29 10:38:07;;;;;;;1.75;1.00;;;;;;;;;;5092834;27;20539;-85
2022/08/29 10:40:51;;;;;;;0.38;0.22;;;;;;;;;;5132716;27;20042;-85
2022/08/29 10:43:37;;;;;;;0.45;0.45;;;;;;;;;;5129146;27;20031;-87
2022/08/29 10:46:16;;;;;;;2.22;1.52;;;;;;;;;;5110417;28;20712;-85
2022/08/29 10:48:45;;;;;;;0.47;0.47;;;;;;;;;;5113243;28;20118;-86
2022/08/29 10:51:41;;;;;;;0.38;0.38;;;;;;;;;;5112237;28;20046;-85
2022/08/29 10:54:36;;;;;;;0.55;0.55;;;;;;;;;;5130101;28;20543;-85
2022/08/29 10:57:03;;;;;;;0.63;0.35;;;;;;;;;;5113209;28;20479;-86
2022/08/29 10:59:53;;;;;;;0.60;0.32;;;;;;;;;;5132455;28;20019;-87
2022/08/29 11:02:37;;;;;;;0.63;0.63;;;;;;;;;;5131763;28;20118;-88
2022/08/29 11:05:12;;;;;;;0.22;0.22;;;;;;;;;;5130549;28;20031;-85
2022/08/29 11:07:54;;;;;;;2.92;1.92;;;;;;;;;;5129624;28;20025;-86
2022/08/29 11:10:25;;;;;;;0.03;0.03;;;;;;;;;;5109972;28;20065;-83
2022/08/29 11:12:51;;;;;;;0.00;0.00;;;;;;;;;;5113403;28;20095;-83
2022/08/29 11:15:25;;;;;;;1.00;1.00;;;;;;;;;;5129631;28;20156;-84
2022/08/29 11:18:16;;;;;;;0.20;0.20;;;;;;;;;;5110337;28;20043;-82
2022/08/29 11:20:47;;;;;;;0.73;0.73;;;;;;;;;;5112110;28;20034;-82
2022/08/29 11:23:37;;;;;;;0.88;0.88;;;;;;;;;;5109915;28;20019;-83
2022/08/29 11:26:27;;;;;;;0.20;0.20;;;;;;;;;;5126824;28;20027;-84
2022/08/29 11:29:16;;;;;;;1.83;0.90;;;;;;;;;;5074188;27;20035;-83
2022/08/29 11:31:49;;;;;;;0.50;0.50;;;;;;;;;;5099532;27;20474;-84
2022/08/29 11:34:20;;;;;;;0.98;0.98;;;;;;;;;;5116731;27;20042;-83
2022/08/29 11:37:04;;;;;;;0.20;0.20;;;;;;;;;;5116020;27;20110;-83
2022/08/29 11:39:46;;;;;;;1.10;0.40;;;;;;;;;;5116062;27;20023;-83
2022/08/29 11:42:15;;;;;;;0.43;0.43;;;;;;;;;;5133567;27;20031;-84
2022/08/29 11:45:00;;;;;;;0.30;0.30;;;;;;;;;;5136078;27;20068;-83
2022/08/29 11:47:54;;;;;;;0.47;0.35;;;;;;;;;;5114037;27;20262;-83
2022/08/29 11:50:35;;;;;;;0.00;0.00;;;;;;;;;;5135423;27;20814;-84
2022/08/29 11:53:32;;;;;;;0.57;0.57;;;;;;;;;;5132699;27;20027;-82
2022/08/29 11:56:12;;;;;;;0.40;0.40;;;;;;;;;;5133907;27;20113;-84
2022/08/29 11:58:42;;;;;;;1.48;0.20;;;;;;;;;;5132616;27;20055;-81
2022/08/29 12:01:33;;;;;;;0.20;0.20;;;;;;;;;;5132515;27;20156;-84
2022/08/29 12:03:59;;;;;;;0.40;0.40;;;;;;;;;;5131822;27;20042;-80
2022/08/29 12:06:37;;;;;;;0.20;0.20;;;;;;;;;;5133345;27;20023;-80
2022/08/29 12:09:08;;;;;;;0.13;0.13;;;;;;;;;;5130038;27;21252;-82
2022/08/29 12:12:01;;;;;;;0.75;0.75;;;;;;;;;;5130435;27;20023;-80
2022/08/29 12:14:57;;;;;;;0.65;0.52;;;;;;;;;;5130221;27;20462;-80
2022/08/29 12:17:23;;;;;;;0.10;0.10;;;;;;;;;;5112728;27;20902;-81
2022/08/29 12:20:12;;;;;;;0.30;0.30;;;;;;;;;;5130539;27;20102;-82
2022/08/29 12:22:52;;;;;;;0.47;0.40;;;;;;;;;;5132674;27;20023;-80
2022/08/29 12:25:27;;;;;;;0.20;0.20;;;;;;;;;;5127401;27;20031;-82
2022/08/29 12:28:02;;;;;;;0.38;0.38;;;;;;;;;;5129333;27;20029;-81
2022/08/29 12:30:33;;;;;;;0.70;0.70;;;;;;;;;;5112409;27;20428;-82
2022/08/29 12:33:14;;;;;;;5.50;0.95;;;;;;;;;;5133270;27;20480;-82
2022/08/29 12:36:04;;;;;;;1.20;1.13;;;;;;;;;;5129306;27;20486;-82
2022/08/29 12:39:05;;;;;;;0.10;0.10;;;;;;;;;;5110275;27;20019;-82
2022/08/29 12:41:50;;;;;;;0.30;0.30;;;;;;;;;;5127280;27;20031;-83
2022/08/29 12:44:23;;;;;;;0.30;0.30;;;;;;;;;;5131734;27;20078;-82
2022/08/29 12:46:52;;;;;;;0.30;0.30;;;;;;;;;;5130257;27;20027;-83
2022/08/29 12:49:25;;;;;;;0.43;0.43;;;;;;;;;;5132993;27;20031;-82
2022/08/29 12:52:01;;;;;;;0.65;0.63;;;;;;;;;;5134097;27;20042;-80
2022/08/29 12:54:30;;;;;;;0.75;0.63;;;;;;;;;;5133660;27;20035;-81
2022/08/29 12:56:55;;;;;;;1.83;0.85;;;;;;;;;;5112212;27;20680;-84
2022/08/29 12:59:22;;;;;;;0.25;0.25;;;;;;;;;;5129580;27;20030;-82
2022/08/29 13:01:50;;;;;;;0.30;0.30;;;;;;;;;;5131377;27;20019;-82
2022/08/29 13:04:20;;;;;;;0.80;0.65;;;;;;;;;;5131386;27;20496;-80
2022/08/29 13:07:03;;;;;;;0.25;0.20;;;;;;;;;;5132841;27;20035;-84
2022/08/29 13:09:40;;;;;;;0.43;0.38;;;;;;;;;;5114478;27;20023;-81
2022/08/29 13:12:16;;;;;;;0.80;0.50;;;;;;;;;;5126010;27;20046;-81
2022/08/29 13:15:06;;;;;;;0.75;0.65;;;;;;;;;;5130607;27;20019;-81
2022/08/29 13:17:38;;;;;;;0.10;0.10;;;;;;;;;;5118122;27;20039;-81
2022/08/29 13:20:41;;;;;;;0.88;0.88;;;;;;;;;;5107686;27;20023;-83
2022/08/29 13:23:25;;;;;;;0.77;0.77;;;;;;;;;;5110332;27;20077;-81
2022/08/29 13:25:51;;;;;;;0.32;0.32;;;;;;;;;;5130926;27;20019;-81
2022/08/29 13:28:25;;;;;;;0.13;0.13;;;;;;;;;;5125669;27;20410;-81
2022/08/29 13:31:14;;;;;;;0.38;0.38;;;;;;;;;;5125588;27;20044;-80
2022/08/29 13:34:08;;;;;;;0.30;0.20;;;;;;;;;;5131214;27;20027;-81
2022/08/29 13:37:06;;;;;;;0.82;0.80;;;;;;;;;;5129717;27;20023;-81
2022/08/29 13:39:35;;;;;;;0.40;0.40;;;;;;;;;;5121676;27;20645;-81
2022/08/29 13:42:00;;;;;;;0.65;0.65;;;;;;;;;;5108899;27;20096;-82
2022/08/29 13:44:32;;;;;;;0.32;0.32;;;;;;;;;;5127091;27;20479;-81
2022/08/29 13:47:00;;;;;;;0.40;0.30;;;;;;;;;;5126189;27;20038;-83
2022/08/29 13:49:28;;;;;;;0.10;0.10;;;;;;;;;;5128413;27;20031;-82
2022/08/29 13:51:54;;;;;;;0.32;0.32;;;;;;;;;;5127536;27;20394;-81
2022/08/29 13:54:20;;;;;;;0.35;0.35;;;;;;;;;;5126397;27;20450;-82
2022/08/29 13:56:48;;;;;;;0.47;0.47;;;;;;;;;;5127449;27;20023;-81
2022/08/29 13:59:20;;;;;;;0.10;0.10;;;;;;;;;;5130256;27;20411;-82
2022/08/29 14:01:45;;;;;;;5.93;1.95;;;;;;;;;;5125257;27;20019;-82
2022/08/29 14:04:11;;;;;;;0.20;0.20;;;;;;;;;;5125497;27;20034;-80
2022/08/29 14:06:36;;;;;;;0.10;0.10;;;;;;;;;;5130311;27;20051;-81
2022/08/29 14:09:02;;;;;;;0.57;0.57;;;;;;;;;;5110611;27;20099;-81
2022/08/29 14:11:28;;;;;;;0.28;0.20;;;;;;;;;;5128297;27;20037;-80
2022/08/29 14:13:54;;;;;;;0.63;0.63;;;;;;;;;;5124608;27;20443;-80
2022/08/29 14:16:20;;;;;;;0.10;0.10;;;;;;;;;;5126188;27;20383;-81
2022/08/29 14:18:45;;;;;;;0.28;0.28;;;;;;;;;;5109321;27;20390;-80
2022/08/29 14:21:11;;;;;;;0.00;0.00;;;;;;;;;;5130568;27;20027;-80
2022/08/29 14:23:38;;;;;;;0.47;0.47;;;;;;;;;;5126537;27;20027;-80
2022/08/29 14:26:03;;;;;;;0.20;0.20;;;;;;;;;;5125854;27;20046;-80
2022/08/29 14:28:29;;;;;;;0.45;0.10;;;;;;;;;;5128829;27;20019;-80
2022/08/29 14:30:54;;;;;;;0.20;0.20;;;;;;;;;;5131665;27;20034;-80
2022/08/29 14:33:22;;;;;;;2.17;0.50;;;;;;;;;;5129701;27;20487;-81
2022/08/29 14:35:48;;;;;;;0.13;0.13;;;;;;;;;;5127216;27;20059;-81
2022/08/29 14:38:13;;;;;;;1.65;0.50;;;;;;;;;;5126105;27;20084;-80
2022/08/29 14:40:39;;;;;;;0.10;0.10;;;;;;;;;;5112305;28;20084;-80
2022/08/29 14:43:04;;;;;;;0.85;0.85;;;;;;;;;;5130817;27;20027;-81
2022/08/29 14:45:30;;;;;;;0.45;0.40;;;;;;;;;;5131002;27;20019;-81
2022/08/29 14:47:57;;;;;;;0.10;0.10;;;;;;;;;;5110316;28;20031;-81
2022/08/29 14:50:23;;;;;;;0.10;0.10;;;;;;;;;;5111660;28;20102;-81
2022/08/29 14:52:49;;;;;;;0.25;0.25;;;;;;;;;;5131861;28;20042;-81
2022/08/29 14:55:15;;;;;;;0.30;0.30;;;;;;;;;;5130349;28;20043;-82
2022/08/29 14:57:40;;;;;;;0.25;0.20;;;;;;;;;;5112717;28;20031;-82
2022/08/29 15:00:10;;;;;;;0.30;0.30;;;;;;;;;;5111342;28;20106;-80
2022/08/29 15:02:36;;;;;;;1.00;0.90;;;;;;;;;;5131049;27;20039;-81
2022/08/29 15:05:01;;;;;;;0.47;0.47;;;;;;;;;;5134211;27;20363;-81
2022/08/29 15:07:27;;;;;;;8.05;2.05;;;;;;;;;;5114877;27;20042;-81